sensor_id;sensor_type;location;lat;lon;timestamp;pressure;altitude;pressure_sealevel;temperature;humidity
79376;BME280;68846;53.150;18.136;2023-06-26T00:00:23;101127.66;;;19.33;54.90
79376;BME280;68846;53.150;18.136;2023-06-26T00:03:10;101122.35;;;19.30;55.16
79376;BME280;68846;53.150;18.136;2023-06-26T00:05:40;101125.30;;;19.25;55.23
79376;BME280;68846;53.150;18.136;2023-06-26T00:08:06;101124.11;;;19.21;55.47
79376;BME280;68846;53.150;18.136;2023-06-26T00:10:32;101121.31;;;19.19;55.55
79376;BME280;68846;53.150;18.136;2023-06-26T00:12:59;101121.54;;;19.16;55.71
79376;BME280;68846;53.150;18.136;2023-06-26T00:15:25;101122.27;;;19.15;55.88
79376;BME280;68846;53.150;18.136;2023-06-26T00:17:51;101120.98;;;19.17;55.91
79376;BME280;68846;53.150;18.136;2023-06-26T00:20:17;101121.30;;;19.19;55.85
79376;BME280;68846;53.150;18.136;2023-06-26T00:22:45;101121.29;;;19.20;55.98
79376;BME280;68846;53.150;18.136;2023-06-26T00:25:12;101121.32;;;19.19;55.99
79376;BME280;68846;53.150;18.136;2023-06-26T00:27:38;101121.34;;;19.16;56.02
79376;BME280;68846;53.150;18.136;2023-06-26T00:30:04;101120.50;;;19.14;56.15
79376;BME280;68846;53.150;18.136;2023-06-26T00:32:31;101118.58;;;19.11;56.27
79376;BME280;68846;53.150;18.136;2023-06-26T00:34:57;101118.13;;;19.07;56.35
79376;BME280;68846;53.150;18.136;2023-06-26T00:37:23;101117.98;;;19.05;56.52
79376;BME280;68846;53.150;18.136;2023-06-26T00:39:49;101119.62;;;19.03;56.67
79376;BME280;68846;53.150;18.136;2023-06-26T00:42:15;101116.62;;;19.00;56.63
79376;BME280;68846;53.150;18.136;2023-06-26T00:44:41;101116.66;;;18.98;56.78
79376;BME280;68846;53.150;18.136;2023-06-26T00:47:09;101113.69;;;18.95;56.91
79376;BME280;68846;53.150;18.136;2023-06-26T00:49:37;101112.11;;;18.92;57.06
79376;BME280;68846;53.150;18.136;2023-06-26T00:52:03;101107.17;;;18.89;57.22
79376;BME280;68846;53.150;18.136;2023-06-26T00:54:31;101104.73;;;18.86;57.21
79376;BME280;68846;53.150;18.136;2023-06-26T00:56:58;101111.40;;;18.83;57.24
79376;BME280;68846;53.150;18.136;2023-06-26T00:59:24;101108.77;;;18.80;57.46
79376;BME280;68846;53.150;18.136;2023-06-26T01:01:50;101108.61;;;18.79;57.39
79376;BME280;68846;53.150;18.136;2023-06-26T01:04:17;101106.66;;;18.78;57.51
79376;BME280;68846;53.150;18.136;2023-06-26T01:06:46;101105.73;;;18.80;57.67
79376;BME280;68846;53.150;18.136;2023-06-26T01:09:18;101106.27;;;18.80;57.67
79376;BME280;68846;53.150;18.136;2023-06-26T01:11:45;101107.02;;;18.77;57.77
79376;BME280;68846;53.150;18.136;2023-06-26T01:14:12;101108.64;;;18.75;57.85
79376;BME280;68846;53.150;18.136;2023-06-26T01:16:40;101104.39;;;18.74;57.87
79376;BME280;68846;53.150;18.136;2023-06-26T01:19:13;101101.20;;;18.73;58.08
79376;BME280;68846;53.150;18.136;2023-06-26T01:21:42;101101.04;;;18.71;58.11
79376;BME280;68846;53.150;18.136;2023-06-26T01:24:17;101096.94;;;18.70;58.18
79376;BME280;68846;53.150;18.136;2023-06-26T01:26:50;101097.00;;;18.68;58.30
79376;BME280;68846;53.150;18.136;2023-06-26T01:29:18;101092.56;;;18.65;58.38
79376;BME280;68846;53.150;18.136;2023-06-26T01:31:44;101090.65;;;18.61;58.42
79376;BME280;68846;53.150;18.136;2023-06-26T01:34:16;101091.05;;;18.58;58.46
79376;BME280;68846;53.150;18.136;2023-06-26T01:36:45;101088.27;;;18.53;58.67
79376;BME280;68846;53.150;18.136;2023-06-26T01:39:17;101085.77;;;18.52;58.63
79376;BME280;68846;53.150;18.136;2023-06-26T01:41:43;101085.96;;;18.52;58.70
79376;BME280;68846;53.150;18.136;2023-06-26T01:44:16;101084.86;;;18.55;58.66
79376;BME280;68846;53.150;18.136;2023-06-26T01:46:53;101079.16;;;18.55;58.71
79376;BME280;68846;53.150;18.136;2023-06-26T01:52:16;101079.00;;;18.54;58.77
79376;BME280;68846;53.150;18.136;2023-06-26T01:55:24;101076.73;;;18.51;58.90
79376;BME280;68846;53.150;18.136;2023-06-26T01:57:56;101079.11;;;18.45;59.06
79376;BME280;68846;53.150;18.136;2023-06-26T02:00:23;101077.80;;;18.39;59.19
79376;BME280;68846;53.150;18.136;2023-06-26T02:02:50;101076.98;;;18.34;59.23
79376;BME280;68846;53.150;18.136;2023-06-26T02:05:16;101072.62;;;18.27;59.45
79376;BME280;68846;53.150;18.136;2023-06-26T02:07:43;101072.70;;;18.22;59.60
79376;BME280;68846;53.150;18.136;2023-06-26T02:10:10;101070.31;;;18.14;59.61
79376;BME280;68846;53.150;18.136;2023-06-26T02:12:37;101073.27;;;18.07;59.78
79376;BME280;68846;53.150;18.136;2023-06-26T02:15:03;101071.40;;;18.00;59.98
79376;BME280;68846;53.150;18.136;2023-06-26T02:17:30;101075.02;;;17.95;59.99
79376;BME280;68846;53.150;18.136;2023-06-26T02:19:56;101070.81;;;17.89;60.12
79376;BME280;68846;53.150;18.136;2023-06-26T02:22:23;101070.77;;;17.80;60.30
79376;BME280;68846;53.150;18.136;2023-06-26T02:24:49;101067.86;;;17.69;60.45
79376;BME280;68846;53.150;18.136;2023-06-26T02:27:15;101065.66;;;17.57;60.71
79376;BME280;68846;53.150;18.136;2023-06-26T02:29:42;101066.84;;;17.50;60.90
79376;BME280;68846;53.150;18.136;2023-06-26T02:32:08;101057.77;;;17.32;61.28
79376;BME280;68846;53.150;18.136;2023-06-26T02:34:35;101069.58;;;17.25;61.39
79376;BME280;68846;53.150;18.136;2023-06-26T02:37:01;101069.66;;;17.18;61.56
79376;BME280;68846;53.150;18.136;2023-06-26T02:39:28;101069.35;;;17.14;61.81
79376;BME280;68846;53.150;18.136;2023-06-26T02:41:54;101069.34;;;17.14;61.94
79376;BME280;68846;53.150;18.136;2023-06-26T02:44:22;101056.89;;;17.14;61.87
79376;BME280;68846;53.150;18.136;2023-06-26T02:46:48;101069.56;;;17.27;61.89
79376;BME280;68846;53.150;18.136;2023-06-26T02:49:14;101070.21;;;17.34;61.78
79376;BME280;68846;53.150;18.136;2023-06-26T02:51:41;101072.14;;;17.36;61.82
79376;BME280;68846;53.150;18.136;2023-06-26T02:54:19;101071.45;;;17.35;61.81
79376;BME280;68846;53.150;18.136;2023-06-26T02:56:45;101074.84;;;17.35;61.88
79376;BME280;68846;53.150;18.136;2023-06-26T02:59:11;101074.48;;;17.32;61.93
79376;BME280;68846;53.150;18.136;2023-06-26T03:01:38;101066.40;;;17.24;61.98
79376;BME280;68846;53.150;18.136;2023-06-26T03:04:04;101077.05;;;17.28;62.16
79376;BME280;68846;53.150;18.136;2023-06-26T03:06:31;101066.47;;;17.18;62.28
79376;BME280;68846;53.150;18.136;2023-06-26T03:08:57;101078.36;;;17.20;62.36
79376;BME280;68846;53.150;18.136;2023-06-26T03:11:24;101076.80;;;17.17;62.34
79376;BME280;68846;53.150;18.136;2023-06-26T03:13:51;101073.58;;;17.18;62.35
79376;BME280;68846;53.150;18.136;2023-06-26T03:16:17;101077.34;;;17.16;62.32
79376;BME280;68846;53.150;18.136;2023-06-26T03:18:43;101073.96;;;17.14;62.27
79376;BME280;68846;53.150;18.136;2023-06-26T03:21:10;101071.17;;;17.10;62.25
79376;BME280;68846;53.150;18.136;2023-06-26T03:23:36;101068.73;;;17.06;62.22
79376;BME280;68846;53.150;18.136;2023-06-26T03:26:02;101070.20;;;16.99;62.35
79376;BME280;68846;53.150;18.136;2023-06-26T03:28:34;101066.89;;;16.92;62.52
79376;BME280;68846;53.150;18.136;2023-06-26T03:31:00;101072.45;;;16.87;62.76
79376;BME280;68846;53.150;18.136;2023-06-26T03:33:27;101067.33;;;16.82;62.90
79376;BME280;68846;53.150;18.136;2023-06-26T03:35:54;101065.05;;;16.80;62.98
79376;BME280;68846;53.150;18.136;2023-06-26T03:38:22;101066.45;;;16.81;63.12
79376;BME280;68846;53.150;18.136;2023-06-26T03:40:48;101069.27;;;16.86;63.22
79376;BME280;68846;53.150;18.136;2023-06-26T03:43:41;101068.70;;;16.88;63.30
79376;BME280;68846;53.150;18.136;2023-06-26T03:46:17;101069.92;;;16.91;63.43
79376;BME280;68846;53.150;18.136;2023-06-26T03:48:43;101068.80;;;16.98;63.46
79376;BME280;68846;53.150;18.136;2023-06-26T03:51:09;101071.39;;;17.05;63.49
79376;BME280;68846;53.150;18.136;2023-06-26T03:53:37;101067.59;;;17.12;63.56
79376;BME280;68846;53.150;18.136;2023-06-26T03:56:04;101064.71;;;17.16;63.57
79376;BME280;68846;53.150;18.136;2023-06-26T03:58:30;101063.23;;;17.19;63.68
79376;BME280;68846;53.150;18.136;2023-06-26T04:00:56;101061.40;;;17.25;63.73
79376;BME280;68846;53.150;18.136;2023-06-26T04:03:24;101059.35;;;17.33;63.72
79376;BME280;68846;53.150;18.136;2023-06-26T04:05:50;101057.46;;;17.42;63.68
79376;BME280;68846;53.150;18.136;2023-06-26T04:08:17;101058.25;;;17.52;63.66
79376;BME280;68846;53.150;18.136;2023-06-26T04:10:43;101057.63;;;17.60;63.76
79376;BME280;68846;53.150;18.136;2023-06-26T04:13:11;101061.48;;;17.66;63.84
79376;BME280;68846;53.150;18.136;2023-06-26T04:15:37;101062.86;;;17.71;63.95
79376;BME280;68846;53.150;18.136;2023-06-26T04:18:04;101061.58;;;17.75;64.03
79376;BME280;68846;53.150;18.136;2023-06-26T04:20:30;101057.41;;;17.80;64.09
79376;BME280;68846;53.150;18.136;2023-06-26T04:22:56;101055.83;;;17.92;64.03
79376;BME280;68846;53.150;18.136;2023-06-26T04:25:23;101054.77;;;18.04;64.02
79376;BME280;68846;53.150;18.136;2023-06-26T04:27:49;101054.65;;;18.13;63.97
79376;BME280;68846;53.150;18.136;2023-06-26T04:30:15;101056.16;;;18.19;63.95
79376;BME280;68846;53.150;18.136;2023-06-26T04:32:41;101053.08;;;18.24;64.01
79376;BME280;68846;53.150;18.136;2023-06-26T04:35:08;101053.03;;;18.26;64.06
79376;BME280;68846;53.150;18.136;2023-06-26T04:37:36;101047.65;;;18.28;63.85
79376;BME280;68846;53.150;18.136;2023-06-26T04:40:02;101054.42;;;18.39;64.02
79376;BME280;68846;53.150;18.136;2023-06-26T04:42:30;101056.85;;;18.44;63.98
79376;BME280;68846;53.150;18.136;2023-06-26T04:44:56;101055.59;;;18.44;63.95
79376;BME280;68846;53.150;18.136;2023-06-26T04:47:22;101054.83;;;18.48;64.09
79376;BME280;68846;53.150;18.136;2023-06-26T04:49:49;101055.45;;;18.54;64.01
79376;BME280;68846;53.150;18.136;2023-06-26T04:52:15;101050.15;;;18.61;63.81
79376;BME280;68846;53.150;18.136;2023-06-26T04:54:41;101053.79;;;18.70;63.74
79376;BME280;68846;53.150;18.136;2023-06-26T04:57:07;101053.08;;;18.81;63.54
79376;BME280;68846;53.150;18.136;2023-06-26T04:59:34;101041.91;;;18.85;63.33
79376;BME280;68846;53.150;18.136;2023-06-26T05:02:01;101057.20;;;19.00;63.09
79376;BME280;68846;53.150;18.136;2023-06-26T05:04:27;101062.06;;;19.08;62.99
79376;BME280;68846;53.150;18.136;2023-06-26T05:06:53;101061.80;;;19.12;62.69
79376;BME280;68846;53.150;18.136;2023-06-26T05:09:20;101060.46;;;19.16;62.70
79376;BME280;68846;53.150;18.136;2023-06-26T05:11:46;101056.67;;;19.19;62.89
79376;BME280;68846;53.150;18.136;2023-06-26T05:14:12;101060.17;;;19.23;62.78
79376;BME280;68846;53.150;18.136;2023-06-26T05:16:39;101058.30;;;19.28;62.71
79376;BME280;68846;53.150;18.136;2023-06-26T05:19:05;101056.55;;;19.34;62.64
79376;BME280;68846;53.150;18.136;2023-06-26T05:21:32;101058.07;;;19.39;62.54
79376;BME280;68846;53.150;18.136;2023-06-26T05:23:58;101055.65;;;19.44;62.54
79376;BME280;68846;53.150;18.136;2023-06-26T05:26:26;101054.77;;;19.52;62.28
79376;BME280;68846;53.150;18.136;2023-06-26T05:28:53;101055.39;;;19.59;61.91
79376;BME280;68846;53.150;18.136;2023-06-26T05:31:20;101054.02;;;19.65;61.91
79376;BME280;68846;53.150;18.136;2023-06-26T05:33:46;101051.27;;;19.69;61.84
79376;BME280;68846;53.150;18.136;2023-06-26T05:36:14;101051.85;;;19.74;61.79
79376;BME280;68846;53.150;18.136;2023-06-26T05:38:42;101049.96;;;19.79;61.61
79376;BME280;68846;53.150;18.136;2023-06-26T05:41:09;101048.26;;;19.84;61.59
79376;BME280;68846;53.150;18.136;2023-06-26T05:43:35;101046.63;;;19.86;61.50
79376;BME280;68846;53.150;18.136;2023-06-26T05:46:01;101043.36;;;19.88;61.51
79376;BME280;68846;53.150;18.136;2023-06-26T05:48:28;101039.13;;;19.85;61.50
79376;BME280;68846;53.150;18.136;2023-06-26T05:50:54;101042.89;;;19.92;61.31
79376;BME280;68846;53.150;18.136;2023-06-26T05:53:21;101043.01;;;19.95;61.53
79376;BME280;68846;53.150;18.136;2023-06-26T05:55:47;101044.14;;;20.00;61.33
79376;BME280;68846;53.150;18.136;2023-06-26T05:58:14;101035.85;;;20.04;61.29
79376;BME280;68846;53.150;18.136;2023-06-26T06:00:40;101033.80;;;20.07;61.29
79376;BME280;68846;53.150;18.136;2023-06-26T06:03:07;101033.25;;;20.07;61.45
79376;BME280;68846;53.150;18.136;2023-06-26T06:05:33;101032.34;;;20.09;61.22
79376;BME280;68846;53.150;18.136;2023-06-26T06:08:00;101027.83;;;20.11;61.08
79376;BME280;68846;53.150;18.136;2023-06-26T06:10:26;101013.13;;;20.05;60.97
79376;BME280;68846;53.150;18.136;2023-06-26T06:12:52;101030.11;;;20.20;61.01
79376;BME280;68846;53.150;18.136;2023-06-26T06:15:20;101032.25;;;20.27;60.87
79376;BME280;68846;53.150;18.136;2023-06-26T06:17:46;101027.95;;;20.36;60.95
79376;BME280;68846;53.150;18.136;2023-06-26T06:20:13;101026.14;;;20.43;60.70
79376;BME280;68846;53.150;18.136;2023-06-26T06:22:39;101026.21;;;20.49;60.70
79376;BME280;68846;53.150;18.136;2023-06-26T06:25:06;101020.86;;;20.56;60.39
79376;BME280;68846;53.150;18.136;2023-06-26T06:27:33;101026.39;;;20.64;60.35
79376;BME280;68846;53.150;18.136;2023-06-26T06:29:59;101026.08;;;20.70;60.12
79376;BME280;68846;53.150;18.136;2023-06-26T06:32:25;101026.84;;;20.75;60.00
79376;BME280;68846;53.150;18.136;2023-06-26T06:34:51;101024.61;;;20.78;59.58
79376;BME280;68846;53.150;18.136;2023-06-26T06:37:18;101024.52;;;20.80;59.31
79376;BME280;68846;53.150;18.136;2023-06-26T06:39:44;101022.31;;;20.83;59.40
79376;BME280;68846;53.150;18.136;2023-06-26T06:42:10;101020.27;;;20.87;59.28
79376;BME280;68846;53.150;18.136;2023-06-26T06:44:37;101020.31;;;20.91;59.19
79376;BME280;68846;53.150;18.136;2023-06-26T06:47:04;101020.16;;;20.97;59.15
79376;BME280;68846;53.150;18.136;2023-06-26T06:49:30;101016.71;;;20.99;59.03
79376;BME280;68846;53.150;18.136;2023-06-26T06:52:21;101017.53;;;21.02;58.82
79376;BME280;68846;53.150;18.136;2023-06-26T06:54:54;101016.58;;;21.04;58.83
79376;BME280;68846;53.150;18.136;2023-06-26T06:57:22;101012.23;;;21.05;58.84
79376;BME280;68846;53.150;18.136;2023-06-26T06:59:48;101014.59;;;21.11;58.93
79376;BME280;68846;53.150;18.136;2023-06-26T07:02:18;101010.33;;;21.17;58.83
79376;BME280;68846;53.150;18.136;2023-06-26T07:04:45;101011.76;;;21.23;58.74
79376;BME280;68846;53.150;18.136;2023-06-26T07:07:12;101014.66;;;21.29;58.30
79376;BME280;68846;53.150;18.136;2023-06-26T07:09:40;101004.81;;;21.29;58.20
79376;BME280;68846;53.150;18.136;2023-06-26T07:12:06;101013.09;;;21.40;58.02
79376;BME280;68846;53.150;18.136;2023-06-26T07:14:33;101015.63;;;21.45;57.62
79376;BME280;68846;53.150;18.136;2023-06-26T07:17:00;101012.80;;;21.50;57.34
79376;BME280;68846;53.150;18.136;2023-06-26T07:19:27;101012.47;;;21.55;57.18
79376;BME280;68846;53.150;18.136;2023-06-26T07:21:53;101016.40;;;21.62;56.87
79376;BME280;68846;53.150;18.136;2023-06-26T07:24:20;101018.56;;;21.68;56.95
79376;BME280;68846;53.150;18.136;2023-06-26T07:26:46;101008.48;;;21.69;56.69
79376;BME280;68846;53.150;18.136;2023-06-26T07:29:13;101012.80;;;21.80;56.61
79376;BME280;68846;53.150;18.136;2023-06-26T07:31:39;101012.66;;;21.85;56.32
79376;BME280;68846;53.150;18.136;2023-06-26T07:34:06;101011.43;;;21.90;56.41
79376;BME280;68846;53.150;18.136;2023-06-26T07:36:32;101011.80;;;21.96;56.33
79376;BME280;68846;53.150;18.136;2023-06-26T07:38:58;101008.73;;;22.02;56.17
79376;BME280;68846;53.150;18.136;2023-06-26T07:41:25;101014.44;;;22.09;55.94
79376;BME280;68846;53.150;18.136;2023-06-26T07:43:51;100998.17;;;22.08;56.06
79376;BME280;68846;53.150;18.136;2023-06-26T07:46:17;100989.14;;;22.10;55.67
79376;BME280;68846;53.150;18.136;2023-06-26T07:48:44;100985.70;;;22.16;55.35
79376;BME280;68846;53.150;18.136;2023-06-26T07:51:10;100994.52;;;22.27;55.32
79376;BME280;68846;53.150;18.136;2023-06-26T07:53:36;100993.27;;;22.32;55.31
79376;BME280;68846;53.150;18.136;2023-06-26T07:56:03;100992.05;;;22.36;54.92
79376;BME280;68846;53.150;18.136;2023-06-26T07:58:29;100992.66;;;22.40;54.63
79376;BME280;68846;53.150;18.136;2023-06-26T08:00:55;100991.45;;;22.44;54.91
79376;BME280;68846;53.150;18.136;2023-06-26T08:03:22;100985.69;;;22.44;54.76
79376;BME280;68846;53.150;18.136;2023-06-26T08:05:51;100989.08;;;22.55;54.37
79376;BME280;68846;53.150;18.136;2023-06-26T08:08:18;100994.23;;;22.63;54.23
79376;BME280;68846;53.150;18.136;2023-06-26T08:10:44;100995.80;;;22.69;54.35
79376;BME280;68846;53.150;18.136;2023-06-26T08:13:11;100993.64;;;22.75;54.41
79376;BME280;68846;53.150;18.136;2023-06-26T08:15:41;100988.55;;;22.81;54.08
79376;BME280;68846;53.150;18.136;2023-06-26T08:18:08;100985.98;;;22.89;53.73
79376;BME280;68846;53.150;18.136;2023-06-26T08:20:35;100985.75;;;22.95;52.93
79376;BME280;68846;53.150;18.136;2023-06-26T08:23:04;100983.22;;;23.01;52.41
79376;BME280;68846;53.150;18.136;2023-06-26T08:25:30;100978.48;;;23.03;52.26
79376;BME280;68846;53.150;18.136;2023-06-26T08:27:56;100975.09;;;23.07;52.32
79376;BME280;68846;53.150;18.136;2023-06-26T08:30:22;100973.42;;;23.13;51.96
79376;BME280;68846;53.150;18.136;2023-06-26T08:32:56;100970.85;;;23.19;51.49
79376;BME280;68846;53.150;18.136;2023-06-26T08:35:22;100970.36;;;23.28;51.72
79376;BME280;68846;53.150;18.136;2023-06-26T08:37:49;100968.23;;;23.32;51.17
79376;BME280;68846;53.150;18.136;2023-06-26T08:40:17;100964.42;;;23.34;51.13
79376;BME280;68846;53.150;18.136;2023-06-26T08:42:47;100967.30;;;23.38;50.76
79376;BME280;68846;53.150;18.136;2023-06-26T08:45:13;100967.02;;;23.45;50.52
79376;BME280;68846;53.150;18.136;2023-06-26T08:47:41;100963.02;;;23.56;50.14
79376;BME280;68846;53.150;18.136;2023-06-26T08:50:13;100960.19;;;23.65;49.78
79376;BME280;68846;53.150;18.136;2023-06-26T08:52:43;100960.20;;;23.73;49.15
79376;BME280;68846;53.150;18.136;2023-06-26T08:55:12;100960.11;;;23.85;49.12
79376;BME280;68846;53.150;18.136;2023-06-26T08:57:41;100959.91;;;23.94;48.85
79376;BME280;68846;53.150;18.136;2023-06-26T09:00:08;100953.70;;;24.01;48.69
79376;BME280;68846;53.150;18.136;2023-06-26T09:02:38;100952.86;;;24.09;48.51
79376;BME280;68846;53.150;18.136;2023-06-26T09:05:05;100944.41;;;24.17;47.87
79376;BME280;68846;53.150;18.136;2023-06-26T09:07:31;100953.77;;;24.40;47.21
79376;BME280;68846;53.150;18.136;2023-06-26T09:09:58;100953.25;;;24.48;46.78
79376;BME280;68846;53.150;18.136;2023-06-26T09:12:27;100951.58;;;24.53;46.21
79376;BME280;68846;53.150;18.136;2023-06-26T09:14:55;100958.91;;;24.59;46.14
79376;BME280;68846;53.150;18.136;2023-06-26T09:17:28;100958.02;;;24.63;46.25
79376;BME280;68846;53.150;18.136;2023-06-26T09:19:54;100947.40;;;24.63;45.02
79376;BME280;68846;53.150;18.136;2023-06-26T09:22:21;100947.63;;;24.70;45.17
79376;BME280;68846;53.150;18.136;2023-06-26T09:24:49;100941.60;;;24.72;45.30
79376;BME280;68846;53.150;18.136;2023-06-26T09:27:16;100941.98;;;24.75;45.26
79376;BME280;68846;53.150;18.136;2023-06-26T09:29:45;100942.25;;;24.77;44.99
79376;BME280;68846;53.150;18.136;2023-06-26T09:32:13;100937.63;;;24.88;45.68
79376;BME280;68846;53.150;18.136;2023-06-26T09:34:41;100934.09;;;25.07;44.90
79376;BME280;68846;53.150;18.136;2023-06-26T09:37:12;100928.14;;;25.23;44.96
79376;BME280;68846;53.150;18.136;2023-06-26T09:39:39;100930.55;;;25.41;44.81
79376;BME280;68846;53.150;18.136;2023-06-26T09:42:05;100917.67;;;25.50;43.69
79376;BME280;68846;53.150;18.136;2023-06-26T09:44:33;100928.63;;;25.70;41.81
79376;BME280;68846;53.150;18.136;2023-06-26T09:47:00;100926.52;;;25.73;41.22
79376;BME280;68846;53.150;18.136;2023-06-26T09:49:27;100918.30;;;25.79;40.69
79376;BME280;68846;53.150;18.136;2023-06-26T09:51:54;100918.31;;;25.86;39.46
79376;BME280;68846;53.150;18.136;2023-06-26T09:54:22;100916.21;;;25.93;40.08
79376;BME280;68846;53.150;18.136;2023-06-26T09:56:50;100916.11;;;25.98;41.25
79376;BME280;68846;53.150;18.136;2023-06-26T09:59:17;100914.77;;;26.11;41.81
79376;BME280;68846;53.150;18.136;2023-06-26T10:01:46;100915.05;;;26.26;41.73
79376;BME280;68846;53.150;18.136;2023-06-26T10:04:13;100903.50;;;26.38;42.06
79376;BME280;68846;53.150;18.136;2023-06-26T10:06:51;100912.48;;;26.59;41.98
79376;BME280;68846;53.150;18.136;2023-06-26T10:09:22;100908.13;;;26.74;39.08
79376;BME280;68846;53.150;18.136;2023-06-26T10:12:03;100900.23;;;26.76;38.58
79376;BME280;68846;53.150;18.136;2023-06-26T10:14:37;100905.34;;;26.88;37.20
79376;BME280;68846;53.150;18.136;2023-06-26T10:17:07;100903.46;;;27.04;35.86
79376;BME280;68846;53.150;18.136;2023-06-26T10:19:35;100899.20;;;27.19;36.18
79376;BME280;68846;53.150;18.136;2023-06-26T10:22:03;100898.42;;;27.33;34.89
79376;BME280;68846;53.150;18.136;2023-06-26T10:24:33;100898.01;;;27.47;34.94
79376;BME280;68846;53.150;18.136;2023-06-26T10:29:36;100891.12;;;27.89;34.62
79376;BME280;68846;53.150;18.136;2023-06-26T10:32:04;100871.58;;;28.01;34.81
79376;BME280;68846;53.150;18.136;2023-06-26T10:34:32;100885.50;;;28.26;34.27
79376;BME280;68846;53.150;18.136;2023-06-26T10:37:02;100878.91;;;28.37;33.73
79376;BME280;68846;53.150;18.136;2023-06-26T10:42:16;100865.16;;;28.57;32.23
79376;BME280;68846;53.150;18.136;2023-06-26T10:44:44;100877.98;;;28.70;31.65
79376;BME280;68846;53.150;18.136;2023-06-26T10:47:28;100866.29;;;28.69;30.90
79376;BME280;68846;53.150;18.136;2023-06-26T10:49:55;100865.49;;;28.81;31.52
79376;BME280;68846;53.150;18.136;2023-06-26T10:52:21;100858.48;;;28.98;32.01
79376;BME280;68846;53.150;18.136;2023-06-26T10:54:47;100857.01;;;29.16;31.49
79376;BME280;68846;53.150;18.136;2023-06-26T10:57:23;100850.64;;;29.30;31.83
79376;BME280;68846;53.150;18.136;2023-06-26T11:00:08;100835.23;;;29.35;31.78
79376;BME280;68846;53.150;18.136;2023-06-26T11:02:49;100851.00;;;29.38;31.31
79376;BME280;68846;53.150;18.136;2023-06-26T11:05:33;100847.78;;;29.35;31.32
79376;BME280;68846;53.150;18.136;2023-06-26T11:08:07;100843.05;;;29.32;30.85
79376;BME280;68846;53.150;18.136;2023-06-26T11:10:53;100845.86;;;29.31;30.66
79376;BME280;68846;53.150;18.136;2023-06-26T11:13:21;100842.15;;;29.35;30.94
79376;BME280;68846;53.150;18.136;2023-06-26T11:15:49;100838.58;;;29.48;30.92
79376;BME280;68846;53.150;18.136;2023-06-26T11:18:16;100839.21;;;29.66;30.67
79376;BME280;68846;53.150;18.136;2023-06-26T11:20:42;100839.20;;;29.85;30.46
79376;BME280;68846;53.150;18.136;2023-06-26T11:23:08;100838.23;;;30.00;30.32
79376;BME280;68846;53.150;18.136;2023-06-26T11:25:36;100824.02;;;30.03;30.25
79376;BME280;68846;53.150;18.136;2023-06-26T11:28:05;100834.58;;;30.24;29.96
79376;BME280;68846;53.150;18.136;2023-06-26T11:30:35;100828.04;;;30.40;29.58
79376;BME280;68846;53.150;18.136;2023-06-26T11:33:08;100826.73;;;30.53;29.38
79376;BME280;68846;53.150;18.136;2023-06-26T11:35:35;100829.60;;;30.64;28.95
79376;BME280;68846;53.150;18.136;2023-06-26T11:38:03;100822.64;;;30.68;28.66
79376;BME280;68846;53.150;18.136;2023-06-26T11:40:36;100819.34;;;30.60;28.05
79376;BME280;68846;53.150;18.136;2023-06-26T11:43:03;100820.95;;;30.63;28.49
79376;BME280;68846;53.150;18.136;2023-06-26T11:45:31;100819.75;;;30.80;28.47
79376;BME280;68846;53.150;18.136;2023-06-26T11:47:58;100806.53;;;30.95;28.53
79376;BME280;68846;53.150;18.136;2023-06-26T11:50:25;100806.16;;;31.17;28.54
79376;BME280;68846;53.150;18.136;2023-06-26T11:52:56;100806.13;;;31.31;28.32
79376;BME280;68846;53.150;18.136;2023-06-26T11:55:23;100809.57;;;31.48;28.35
79376;BME280;68846;53.150;18.136;2023-06-26T11:57:50;100809.01;;;31.60;28.73
79376;BME280;68846;53.150;18.136;2023-06-26T12:00:19;100803.11;;;31.73;28.81
79376;BME280;68846;53.150;18.136;2023-06-26T12:02:51;100802.17;;;31.88;28.91
79376;BME280;68846;53.150;18.136;2023-06-26T12:05:18;100799.19;;;31.97;28.71
79376;BME280;68846;53.150;18.136;2023-06-26T12:07:47;100796.27;;;31.94;28.77
79376;BME280;68846;53.150;18.136;2023-06-26T12:10:14;100790.05;;;31.99;28.66
79376;BME280;68846;53.150;18.136;2023-06-26T12:12:45;100791.26;;;32.05;28.18
79376;BME280;68846;53.150;18.136;2023-06-26T12:15:15;100787.29;;;31.95;28.52
79376;BME280;68846;53.150;18.136;2023-06-26T12:17:41;100782.74;;;31.87;28.28
79376;BME280;68846;53.150;18.136;2023-06-26T12:20:19;100782.48;;;31.79;28.28
79376;BME280;68846;53.150;18.136;2023-06-26T12:22:47;100782.30;;;31.62;28.74
79376;BME280;68846;53.150;18.136;2023-06-26T12:25:15;100787.34;;;31.41;28.60
79376;BME280;68846;53.150;18.136;2023-06-26T12:27:41;100783.67;;;31.17;28.58
79376;BME280;68846;53.150;18.136;2023-06-26T12:30:07;100780.48;;;30.88;28.47
79376;BME280;68846;53.150;18.136;2023-06-26T12:32:34;100775.18;;;30.73;28.73
79376;BME280;68846;53.150;18.136;2023-06-26T12:35:01;100781.91;;;30.58;28.52
79376;BME280;68846;53.150;18.136;2023-06-26T12:37:27;100780.67;;;30.39;28.05
79376;BME280;68846;53.150;18.136;2023-06-26T12:39:55;100777.88;;;30.22;27.78
79376;BME280;68846;53.150;18.136;2023-06-26T12:42:26;100776.95;;;30.07;28.04
79376;BME280;68846;53.150;18.136;2023-06-26T12:44:53;100770.05;;;29.91;28.21
79376;BME280;68846;53.150;18.136;2023-06-26T12:47:27;100770.80;;;29.85;28.67
79376;BME280;68846;53.150;18.136;2023-06-26T12:49:54;100765.06;;;29.76;29.08
79376;BME280;68846;53.150;18.136;2023-06-26T12:52:21;100760.03;;;29.62;29.11